Savant Lake, Canada
Current Conditions -  °F | °C
As of 1:00 PM on Tuesday 21 Oct 2014 (Local Time) from CYXL Reporting Station
Overcast Overcast  
Wind Chill: 34°   Ceiling: 1500
Heat Index: 39°   Visibility: 15mi
Dew Point: 34°   Wind: 8mph
Humidity: 81%   Direction: 170°S
Pressure: 30.21"   Gusts: NA
Location:  50.23°N, 90.72°W
Report Text: CYXL 211800Z 17007KT 15SM OVC015 04/01 A3021 RMK SC8 SLP247
Loading
Personal Weather Stations






























Interactive Weather Map
Tropical Storm Tracking
New forecast layout! Learn more

10-Day Weather Forecast

Advertisements
Track Severe Weather on mobile